createdAt,value
2019-05-14T00:07:22.818Z,51.72
2019-05-14T00:10:11.789Z,51.44
2019-05-14T00:12:57.313Z,51.63
2019-05-14T00:15:44.944Z,51.74
2019-05-14T00:18:31.739Z,52.29
2019-05-14T00:21:18.219Z,52.43
2019-05-14T00:24:05.171Z,52.50
2019-05-14T00:26:52.187Z,52.91
2019-05-14T00:29:41.446Z,53.39
2019-05-14T00:32:26.315Z,53.76
2019-05-14T00:35:15.790Z,54.34
2019-05-14T00:41:11.136Z,54.90
2019-05-14T00:43:56.107Z,54.49
2019-05-14T00:46:43.353Z,53.57
2019-05-14T00:49:31.682Z,54.90
2019-05-14T00:52:17.276Z,55.46
2019-05-14T00:55:04.313Z,55.44
2019-05-14T01:13:22.118Z,56.53
2019-05-14T01:16:09.284Z,57.26
2019-05-14T01:22:09.263Z,58.13
2019-05-14T01:24:56.607Z,56.05
2019-05-14T01:49:27.979Z,58.79
2019-05-14T01:52:14.747Z,58.86
2019-05-14T01:55:02.151Z,58.84
2019-05-14T02:01:02.420Z,60.09
2019-05-14T02:19:22.324Z,61.21
2019-05-14T02:22:11.292Z,60.75
2019-05-14T02:31:23.532Z,60.82
2019-05-14T02:34:10.579Z,60.66
2019-05-14T03:20:24.186Z,62.68
2019-05-14T03:23:18.116Z,62.82
2019-05-14T03:26:00.508Z,62.99
2019-05-14T03:28:44.645Z,63.19
2019-05-14T03:50:10.280Z,64.22
2019-05-14T03:52:55.662Z,64.46
2019-05-14T03:55:42.396Z,64.81
2019-05-14T03:58:30.380Z,64.97
2019-05-14T04:01:19.906Z,65.28
2019-05-14T04:04:03.101Z,65.47
2019-05-14T04:13:03.320Z,64.37
2019-05-14T04:15:50.879Z,65.84
2019-05-14T04:18:40.429Z,66.07
2019-05-14T04:21:24.898Z,66.54
2019-05-14T04:27:20.300Z,66.90
2019-05-14T04:30:24.198Z,65.31
2019-05-14T04:33:10.632Z,66.80
2019-05-14T04:35:59.998Z,66.77
2019-05-14T04:38:44.556Z,66.71
2019-05-14T04:41:32.136Z,66.38
2019-05-14T04:44:19.414Z,66.30
2019-05-14T04:47:25.284Z,66.17
2019-05-14T04:49:52.836Z,66.17
2019-05-14T04:52:40.617Z,66.27
2019-05-14T04:58:49.623Z,66.24
2019-05-14T05:01:34.176Z,66.21
2019-05-14T05:04:20.928Z,65.43
2019-05-14T05:07:09.889Z,65.64
2019-05-14T05:09:54.631Z,64.93
2019-05-14T05:12:49.325Z,64.74
2019-05-14T05:15:34.715Z,64.56
2019-05-14T05:18:21.423Z,64.54
2019-05-14T05:21:08.835Z,62.33
2019-05-14T05:23:55.373Z,64.10
2019-05-14T05:33:01.953Z,63.95
2019-05-14T05:45:14.966Z,63.99
2019-05-14T05:48:09.402Z,63.99
2019-05-14T05:50:58.843Z,64.05
2019-05-14T05:53:43.582Z,61.77
2019-05-14T06:02:44.436Z,63.10
2019-05-14T06:08:39.259Z,59.66
2019-05-14T06:14:48.821Z,61.53
2019-05-14T06:20:49.398Z,61.51
2019-05-14T06:29:54.486Z,60.86
2019-05-14T06:45:22.026Z,59.42
2019-05-14T06:54:21.995Z,59.08
2019-05-14T06:57:09.157Z,55.48
2019-05-14T07:03:17.996Z,58.62
2019-05-14T07:06:04.460Z,58.50
2019-05-14T07:15:18.262Z,58.22
2019-05-14T07:36:58.737Z,56.03
2019-05-14T07:39:43.546Z,56.28
2019-05-14T07:42:44.970Z,55.91
2019-05-14T07:45:33.460Z,55.95
2019-05-14T07:48:19.093Z,55.49
2019-05-14T07:51:08.448Z,55.64
2019-05-14T07:53:53.736Z,56.16
2019-05-14T08:06:14.050Z,52.20
2019-05-14T08:09:15.520Z,54.22
2019-05-14T08:12:02.294Z,48.79
2019-05-14T08:24:26.945Z,49.08
2019-05-14T08:27:08.706Z,52.22
2019-05-14T08:29:58.911Z,53.58
2019-05-14T08:32:44.246Z,53.15
2019-05-14T08:38:38.312Z,51.92
2019-05-14T08:41:24.627Z,52.21
2019-05-14T08:47:25.246Z,51.86
2019-05-14T08:50:19.215Z,53.03
2019-05-14T08:53:05.874Z,52.92
2019-05-14T08:58:59.171Z,53.31
2019-05-14T09:02:00.840Z,52.24
2019-05-14T09:04:34.708Z,51.68
2019-05-14T09:07:21.775Z,51.36
2019-05-14T09:10:08.844Z,51.88
2019-05-14T09:16:19.419Z,51.65
2019-05-14T09:19:04.552Z,51.15
2019-05-14T09:21:51.850Z,50.80
2019-05-14T09:37:04.275Z,47.57
2019-05-14T09:46:18.685Z,47.65
2019-05-14T09:49:05.195Z,49.16
2019-05-14T09:55:06.130Z,46.20
2019-05-14T10:01:13.475Z,48.29
2019-05-14T10:10:14.459Z,45.90
2019-05-14T10:19:15.187Z,44.02
2019-05-14T10:22:02.701Z,45.12
2019-05-14T10:46:39.583Z,42.34
2019-05-14T10:49:29.701Z,41.97
2019-05-14T10:52:14.133Z,41.58
2019-05-14T10:55:01.264Z,41.20
2019-05-14T10:57:53.950Z,41.46
2019-05-14T11:00:36.069Z,41.89
2019-05-14T11:03:23.238Z,41.69
2019-05-14T11:40:19.091Z,41.00
2019-05-14T11:43:08.264Z,42.46
2019-05-14T11:45:52.855Z,42.17
2019-05-14T11:48:40.865Z,41.98
2019-05-14T11:57:39.798Z,44.31
2019-05-14T12:00:29.335Z,44.87
2019-05-14T12:03:13.887Z,42.77
2019-05-14T12:09:11.447Z,43.06
2019-05-14T12:12:12.579Z,43.66
2019-05-14T12:18:02.222Z,42.64
2019-05-14T12:20:49.860Z,41.27
2019-05-14T12:23:36.037Z,43.10
2019-05-14T12:26:23.076Z,43.78
2019-05-14T12:29:10.274Z,44.99
2019-05-14T12:35:19.687Z,44.14
2019-05-14T12:38:04.480Z,43.32
2019-05-14T12:40:51.372Z,39.03
2019-05-14T12:43:39.747Z,40.95
2019-05-14T12:46:25.025Z,41.65
2019-05-14T12:49:12.314Z,44.08
2019-05-14T12:55:05.862Z,38.61
2019-05-14T13:01:13.919Z,42.88
2019-05-14T13:04:01.464Z,40.23
2019-05-14T13:06:48.656Z,42.92
2019-05-14T13:09:38.316Z,42.95
2019-05-14T13:21:40.845Z,41.60
2019-05-14T13:30:39.957Z,40.95
2019-05-14T13:36:32.495Z,40.14
2019-05-14T13:45:32.873Z,42.76
2019-05-14T13:48:19.990Z,42.30
2019-05-14T13:51:08.981Z,38.21
2019-05-14T13:53:54.744Z,40.50
2019-05-14T13:56:41.550Z,41.50
2019-05-14T13:59:28.773Z,41.02
2019-05-14T14:02:18.930Z,40.63
2019-05-14T14:05:03.490Z,41.70
2019-05-14T14:14:20.231Z,40.85
2019-05-14T14:17:06.933Z,42.48
2019-05-14T14:19:53.698Z,43.78
2019-05-14T14:22:54.986Z,43.17
2019-05-14T14:31:53.895Z,43.93
2019-05-14T14:34:41.618Z,43.81
2019-05-14T14:37:42.866Z,43.08
2019-05-14T14:43:35.625Z,42.64
2019-05-14T14:46:22.456Z,43.20
2019-05-14T14:49:10.930Z,43.46
2019-05-14T14:51:58.894Z,42.13
2019-05-14T14:54:44.301Z,41.64
2019-05-14T14:57:31.304Z,41.15
2019-05-14T15:00:19.364Z,41.14
2019-05-14T15:03:05.858Z,41.67
2019-05-14T15:05:52.683Z,42.20
2019-05-14T15:08:40.151Z,41.67
2019-05-14T15:11:29.351Z,36.89
2019-05-14T15:14:15.331Z,38.87
2019-05-14T15:17:03.297Z,38.07
2019-05-14T15:19:50.605Z,37.15
2019-05-14T15:22:37.643Z,38.14
2019-05-14T15:25:28.933Z,39.58
2019-05-14T15:28:14.853Z,40.22
2019-05-14T15:31:18.936Z,40.24
2019-05-14T15:34:02.957Z,40.26
2019-05-14T15:36:50.198Z,36.80
2019-05-14T15:45:49.127Z,40.18
2019-05-14T15:54:50.536Z,40.21
2019-05-14T15:57:43.041Z,40.88
2019-05-14T16:00:30.363Z,41.28
2019-05-14T16:21:55.368Z,42.18
2019-05-14T16:24:55.710Z,41.12
2019-05-14T16:39:57.920Z,31.87
2019-05-14T16:42:44.711Z,34.15
2019-05-14T16:45:31.815Z,34.12
2019-05-14T16:51:32.523Z,33.84
2019-05-14T16:54:19.811Z,33.00
2019-05-14T17:34:22.416Z,31.34
2019-05-14T17:37:11.172Z,25.48
2019-05-14T17:39:59.179Z,28.86
2019-05-14T17:42:48.715Z,29.21
2019-05-14T17:45:40.839Z,29.16
2019-05-14T18:07:05.036Z,35.97
2019-05-14T18:13:08.872Z,38.65
2019-05-14T18:15:53.391Z,38.94
2019-05-14T18:18:40.302Z,39.12
2019-05-14T18:24:33.768Z,39.37
2019-05-14T18:27:38.762Z,39.88
2019-05-14T18:30:23.075Z,40.41
2019-05-14T18:33:10.364Z,41.04
2019-05-14T18:36:04.204Z,41.52
2019-05-14T18:38:51.066Z,42.10
2019-05-14T18:41:45.589Z,42.28
2019-05-14T18:44:49.279Z,42.75
2019-05-14T18:47:34.342Z,42.88
2019-05-14T18:56:48.938Z,44.36
2019-05-14T18:59:35.033Z,44.65
2019-05-14T19:08:34.000Z,45.96
2019-05-14T19:17:48.863Z,47.35
2019-05-14T19:29:53.568Z,48.92
2019-05-14T19:32:55.433Z,48.84
2019-05-14T19:35:49.810Z,50.25
2019-05-14T19:38:38.903Z,50.80
2019-05-14T19:41:24.138Z,51.22
2019-05-14T19:50:38.698Z,51.66
2019-05-14T19:53:24.813Z,51.71
2019-05-14T20:02:23.490Z,51.72
2019-05-14T20:05:10.527Z,51.65
2019-05-14T20:07:58.140Z,50.98
2019-05-14T20:26:14.609Z,52.29
2019-05-14T20:29:01.411Z,51.95
2019-05-14T20:31:48.339Z,52.57
2019-05-14T20:34:37.871Z,52.22
2019-05-14T20:37:24.841Z,52.36
2019-05-14T20:55:59.994Z,53.46
2019-05-14T20:58:48.156Z,53.51
2019-05-14T21:01:34.657Z,53.78
2019-05-14T21:04:22.226Z,54.49
2019-05-14T21:16:28.275Z,54.72
2019-05-14T21:19:14.517Z,55.94
2019-05-14T21:22:02.061Z,56.38
2019-05-14T21:37:19.742Z,55.41
2019-05-14T21:40:08.979Z,55.37
2019-05-14T21:49:07.640Z,55.36
2019-05-14T21:58:21.227Z,55.84
2019-05-14T22:01:08.060Z,55.89
2019-05-14T22:03:55.659Z,55.76
2019-05-14T22:06:42.608Z,55.88
2019-05-14T22:09:29.470Z,55.89
2019-05-14T22:12:20.309Z,55.91
2019-05-14T22:15:13.461Z,56.23
2019-05-14T22:21:22.784Z,56.82
2019-05-14T22:33:34.494Z,56.93
2019-05-14T22:36:21.601Z,57.22
2019-05-14T22:39:08.536Z,57.20
2019-05-14T22:45:01.681Z,56.93
2019-05-14T22:50:59.137Z,57.57
2019-05-14T22:53:50.720Z,57.16
2019-05-14T22:59:43.764Z,57.42
2019-05-14T23:05:39.370Z,58.38
2019-05-14T23:08:25.574Z,58.32
2019-05-14T23:11:13.492Z,58.68
2019-05-14T23:14:00.946Z,58.66
2019-05-14T23:16:49.175Z,58.77
2019-05-14T23:19:34.774Z,59.15
2019-05-14T23:22:22.283Z,59.17
2019-05-14T23:25:09.284Z,59.50
2019-05-14T23:27:56.124Z,59.49
2019-05-14T23:30:44.034Z,59.75
2019-05-14T23:33:30.886Z,59.80
2019-05-14T23:36:18.491Z,59.71
2019-05-14T23:39:08.880Z,59.52
2019-05-14T23:41:53.853Z,59.64
2019-05-14T23:44:40.901Z,59.83
2019-05-14T23:47:29.032Z,58.77
2019-05-14T23:50:16.823Z,60.16
2019-05-14T23:53:03.957Z,60.56
2019-05-14T23:55:50.776Z,60.55
2019-05-14T23:58:37.931Z,60.52
